Latest Weather Observations for Truscott

IDD60801

Issued at 11:35 am CST Thursday 23 October 2014 (issued every 30 minutes, with the page automatically refreshed every 10 minutes)

About weather observations | Map of weather stations | Latest weather observations for NT | Other Formats
Station Details ID: 001020 Name: TRUSCOTT Lat: -14.09 Lon: 126.39 Height: 51.0 m
Data from the previous 72 hours. | See also: Recent months at Truscott
Date/Time
CST
Temp
°C
App
Temp
°C
Dew
Point
Rel
Hum
%
Delta-T
°C
Wind Press
QNH
hPa
Press
MSL
hPa
Rain
since 9 am
mm
Dir
 
Spd
km/h
Gust
km/h
Spd
kts
Gust
kts
23/11:30am 32.5 34.4 21.4 52 7.5 NNW 13 22 7 12 1013.5 - 0.0
23/11:00am 31.9 33.7 21.1 52 7.3 NW 13 20 7 11 1013.6 - 0.0
23/10:00am 30.1 33.6 22.8 65 5.0 WNW 9 17 5 9 1014.5 - 0.0
23/09:30am 29.2 31.9 22.2 66 4.7 W 11 17 6 9 1014.1 - 0.0
23/09:00am 28.9 32.1 22.4 68 4.4 W 9 15 5 8 1014.2 - 0.0
23/08:30am 29.0 31.6 22.7 69 4.3 W 13 20 7 11 1013.6 - 0.0
23/08:00am 28.1 32.2 23.2 74 3.4 WNW 7 11 4 6 1013.4 - 0.0
23/07:30am 26.9 32.6 23.8 83 2.1 CALM 0 0 0 0 1013.2 1012.6 0.0
23/07:00am 26.2 31.4 23.5 85 1.8 SE 2 7 1 4 1012.9 - 0.0
23/06:30am 26.6 31.1 23.7 84 2.0 SSW 6 9 3 5 1012.5 - 0.0
23/06:00am 26.5 32.2 23.8 85 1.9 CALM 0 0 0 0 1012.0 - 0.0
23/05:30am 26.7 31.3 23.8 84 2.0 WSW 6 9 3 5 1011.6 - 0.0
23/05:00am 26.6 31.3 23.9 85 1.9 SW 6 7 3 4 1011.3 - 0.0
23/04:30am 26.3 30.8 24.0 87 1.6 SW 7 9 4 5 1011.2 1010.6 0.0
23/04:14am 26.6 31.1 23.9 85 1.9 W 7 9 4 5 1011.1 - 0.0
23/04:00am 26.5 31.3 24.2 87 1.6 W 6 9 3 5 1011.2 - 0.0
23/03:30am 26.4 31.0 24.1 87 1.6 W 7 11 4 6 1011.1 - 0.0
23/03:00am 26.5 31.2 24.0 86 1.7 WNW 6 9 3 5 1011.2 - 0.0
23/02:30am 26.8 31.1 23.7 83 2.1 W 7 11 4 6 1011.6 - 0.0
23/02:00am 27.0 31.0 23.7 82 2.3 W 9 15 5 8 1012.0 - 0.0
23/01:30am 26.9 30.9 23.8 83 2.1 W 9 13 5 7 1012.5 1011.9 0.0
23/01:00am 26.9 31.2 23.6 82 2.3 W 7 11 4 6 1012.7 - 0.0
23/12:30am 27.0 31.2 23.5 81 2.4 WNW 7 11 4 6 1012.9 - 0.0
23/12:00am 26.9 31.1 23.4 81 2.4 W 7 9 4 5 1013.3 - 0.0
 
Date/Time
CST
Temp
°C
App
Temp
°C
Dew
Point
Rel
Hum
%
Delta-T
°C
Wind Press
QNH
hPa
Press
MSL
hPa
Rain
since 9 am
mm
Dir
 
Spd
km/h
Gust
km/h
Spd
kts
Gust
kts
22/11:30pm 26.6 31.0 23.5 83 2.1 W 6 9 3 5 1013.5 - 0.0
22/11:00pm 26.9 31.2 23.6 82 2.3 WNW 7 9 4 5 1013.7 - 0.0
22/10:30pm 26.8 31.1 23.7 83 2.1 NW 7 9 4 5 1013.6 1013.0 0.0
22/10:00pm 27.0 30.8 23.5 81 2.4 NW 9 11 5 6 1013.8 - 0.0
22/09:30pm 27.2 31.4 23.4 80 2.6 NNW 7 9 4 5 1013.7 - 0.0
22/09:00pm 27.4 31.5 23.2 78 2.9 NW 7 13 4 7 1013.4 - 0.0
22/08:30pm 27.6 30.9 23.2 77 3.0 NW 11 15 6 8 1012.8 - 0.0
22/08:00pm 27.8 31.1 23.2 76 3.1 NNW 11 15 6 8 1012.8 - 0.0
22/07:30pm 28.0 31.2 23.1 74 3.4 NNW 11 17 6 9 1012.3 1011.7 0.0
22/07:00pm 28.3 31.8 22.8 72 3.7 NW 9 17 5 9 1011.9 - 0.0
22/06:30pm 28.8 31.1 22.1 67 4.5 NNW 13 19 7 10 1011.4 - 0.0
22/06:00pm 29.3 30.7 21.8 64 5.1 N 17 24 9 13 1011.1 - 0.0
22/05:30pm 29.9 30.7 20.7 57 6.1 NNW 17 24 9 13 1010.9 - 0.0
22/05:00pm 30.3 30.5 20.2 54 6.7 NNW 19 24 10 13 1010.6 - 0.0
22/04:30pm 31.0 31.3 19.7 51 7.4 NNW 17 28 9 15 1010.7 1010.1 0.0
22/04:00pm 31.2 31.1 19.9 51 7.5 NNW 20 30 11 16 1010.8 - 0.0
22/03:30pm 31.0 31.6 20.3 53 7.1 NNW 17 26 9 14 1011.1 - 0.0
22/03:00pm 32.0 33.0 21.8 54 6.9 NNW 19 26 10 14 1011.4 - 0.0
22/02:30pm 31.7 32.2 20.9 52 7.2 N 19 30 10 16 1011.7 - 0.0
22/02:00pm 31.2 31.5 20.5 53 7.1 N 19 28 10 15 1012.2 - 0.0
22/01:30pm 32.9 33.8 20.8 49 8.1 NNW 17 30 9 16 1012.9 1012.3 0.0
22/01:00pm 32.7 33.9 21.5 51 7.6 N 17 26 9 14 1013.4 - 0.0
22/12:30pm 32.3 33.1 19.9 48 8.2 NNW 15 20 8 11 1013.7 - 0.0
22/12:00pm 31.6 32.9 20.2 50 7.6 N 13 22 7 12 1013.8 - 0.0
22/11:30am 31.7 32.6 19.3 47 8.1 NW 13 19 7 10 1014.2 - 0.0
22/11:00am 31.6 32.8 19.9 50 7.7 NW 13 20 7 11 1014.3 - 0.0
22/10:30am 31.0 33.0 20.0 52 7.3 NNW 9 15 5 8 1014.6 1014.0 0.0
22/10:00am 30.2 31.9 21.0 58 6.1 NW 13 20 7 11 1014.8 - 0.0
22/09:30am 29.3 32.1 22.3 66 4.7 WNW 11 15 6 8 1014.8 - 0.0
22/09:00am 28.2 31.4 22.4 71 3.9 WNW 9 13 5 7 1014.8 - 0.0
22/08:30am 28.2 33.5 23.1 74 3.5 CALM 0 0 0 0 1014.5 - 0.0
22/08:00am 27.4 32.8 23.2 78 2.9 CALM 0 7 0 4 1013.9 - 0.0
22/07:30am 26.3 30.5 23.2 83 2.1 WSW 6 9 3 5 1013.4 1012.8 0.0
22/07:00am 24.6 28.4 22.8 90 1.2 S 7 9 4 5 1013.3 - 0.0
22/06:30am 24.2 29.2 22.5 90 1.1 CALM 0 0 0 0 1012.8 - 0.0
22/06:00am 24.4 29.2 22.1 87 1.5 CALM 0 0 0 0 1012.6 - 0.0
22/05:30am 25.6 29.3 22.3 82 2.2 SW 6 7 3 4 1012.3 - 0.0
22/05:00am 26.1 29.8 22.6 81 2.4 W 7 11 4 6 1011.9 - 0.0
22/04:30am 26.3 30.2 23.0 82 2.2 W 7 13 4 7 1011.8 1011.2 0.0
22/04:00am 26.3 30.2 23.0 82 2.2 WSW 7 9 4 5 1011.7 - 0.0
22/03:30am 26.4 30.4 23.1 82 2.2 WSW 7 11 4 6 1011.7 - 0.0
22/03:00am 26.0 30.3 22.7 82 2.2 W 4 7 2 4 1011.9 - 0.0
22/02:30am 26.0 30.1 22.9 83 2.1 W 6 7 3 4 1011.9 - 0.0
22/02:00am 26.0 30.0 22.7 82 2.2 W 6 7 3 4 1012.4 - 0.0
22/01:30am 26.2 31.0 22.9 82 2.2 W 2 7 1 4 1013.0 1012.4 0.0
22/01:00am 26.7 30.8 23.2 81 2.4 WNW 7 9 4 5 1013.3 - 0.0
22/12:30am 27.3 31.0 23.3 79 2.7 W 9 11 5 6 1013.5 - 0.0
22/12:00am 26.9 31.0 22.9 79 2.7 WNW 6 7 3 4 1014.2 - 0.0
 
Date/Time
CST
Temp
°C
App
Temp
°C
Dew
Point
Rel
Hum
%
Delta-T
°C
Wind Press
QNH
hPa
Press
MSL
hPa
Rain
since 9 am
mm
Dir
 
Spd
km/h
Gust
km/h
Spd
kts
Gust
kts
21/11:30pm 27.2 31.0 22.8 77 3.0 WNW 7 11 4 6 1014.5 - 0.0
21/11:00pm 27.2 31.0 22.8 77 3.0 WNW 7 9 4 5 1014.6 - 0.0
21/10:30pm 27.4 31.1 22.6 75 3.3 NW 7 13 4 7 1014.4 1013.8 0.0
21/10:00pm 27.6 31.4 22.8 75 3.3 NW 7 13 4 7 1014.5 - 0.0
21/09:30pm 27.8 31.2 22.7 74 3.5 NW 9 15 5 8 1014.3 - 0.0
21/09:00pm 27.8 31.2 22.7 74 3.5 NW 9 13 5 7 1014.2 - 0.0
21/08:30pm 27.9 31.7 22.8 74 3.5 NW 7 11 4 6 1014.0 - 0.0
21/08:00pm 28.1 31.2 22.8 73 3.6 NNW 11 17 6 9 1013.6 - 0.0
21/07:30pm 28.3 30.8 22.5 71 3.9 NNW 13 20 7 11 1013.1 1012.5 0.0
21/07:00pm 28.3 30.6 22.8 72 3.7 NNW 15 24 8 13 1012.5 - 0.0
21/06:30pm 28.9 30.9 22.2 67 4.5 NNW 15 24 8 13 1012.2 - 0.0
21/06:00pm 29.3 30.4 21.3 62 5.4 NNW 17 26 9 14 1012.0 - 0.0
21/05:30pm 29.8 30.5 21.2 60 5.8 NNW 19 30 10 16 1011.7 - 0.0
21/05:00pm 30.0 30.6 21.1 59 6.0 NNW 19 32 10 17 1011.6 - 0.0
21/04:30pm 30.6 31.6 21.7 59 6.0 NNW 19 28 10 15 1011.7 1011.1 0.0
21/04:00pm 30.8 31.6 21.3 57 6.4 NNW 19 28 10 15 1011.9 - 0.0
21/03:30pm 30.8 32.1 22.7 62 5.5 N 20 30 11 16 1012.0 - 0.0
21/03:00pm 30.6 31.5 21.9 59 5.9 NNW 20 30 11 16 1012.5 - 0.0
21/02:30pm 30.7 31.4 21.5 58 6.2 NNW 20 28 11 15 1012.8 - 0.0
21/02:00pm 31.3 33.3 22.9 61 5.8 NNW 17 24 9 13 1013.3 - 0.0
21/01:30pm 31.0 32.0 21.8 58 6.2 N 19 30 10 16 1013.6 1013.0 0.0
21/01:00pm 31.7 32.8 21.2 53 7.1 N 17 26 9 14 1014.2 - 0.0
21/12:30pm 30.8 31.1 20.7 55 6.7 N 20 28 11 15 1014.6 - 0.0
21/12:00pm 31.6 32.4 21.4 54 6.9 NNW 19 28 10 15 1014.9 - 0.0
21/11:30am 30.5 32.4 22.7 63 5.3 NNW 17 26 9 14 1015.4 - 0.0
21/11:00am 30.7 32.6 22.0 59 5.9 NNW 15 22 8 12 1015.8 - 0.0
21/10:30am 30.9 33.5 21.9 58 6.1 NNW 11 17 6 9 1016.1 1015.6 0.0
21/10:00am 29.5 30.6 22.0 64 5.1 NNW 19 26 10 14 1015.7 - 0.0
21/09:30am 29.8 32.1 22.0 63 5.3 N 13 19 7 10 1015.9 - 0.0
21/09:00am 28.7 31.7 22.7 70 4.1 N 11 17 6 9 1015.9 - 0.0
21/08:30am 28.8 32.9 23.0 71 4.0 NNE 6 11 3 6 1015.3 - 0.0
21/08:00am 27.4 31.4 22.8 76 3.1 E 6 9 3 5 1015.1 - 0.0
21/07:30am 25.8 29.3 22.9 84 2.0 NE 9 11 5 6 1014.6 1014.0 0.0
21/07:00am 24.6 28.6 22.7 89 1.3 S 6 7 3 4 1013.8 - 0.0
21/06:30am 24.7 28.5 22.4 87 1.5 SSW 6 7 3 4 1013.4 - 0.0
21/06:00am 26.2 30.1 22.9 82 2.2 SW 7 11 4 6 1012.8 - 0.0
21/05:30am 26.5 29.7 23.0 81 2.4 SW 11 13 6 7 1012.5 - 0.0
21/05:00am 26.6 29.8 23.1 81 2.4 WSW 11 13 6 7 1012.3 - 0.0
21/04:30am 26.7 30.3 23.0 80 2.5 WSW 9 13 5 7 1012.2 1011.6 0.0
21/04:00am 26.6 30.5 22.9 80 2.5 WSW 7 9 4 5 1012.0 - 0.0
21/03:30am 26.5 30.4 23.0 81 2.4 SW 7 11 4 6 1012.0 - 0.0
21/03:00am 26.6 30.2 23.1 81 2.4 WSW 9 13 5 7 1011.8 - 0.0
21/02:30am 26.7 30.7 23.8 84 2.0 WSW 9 13 5 7 1012.1 - 0.0
21/02:00am 26.7 30.7 23.8 84 2.0 W 9 11 5 6 1012.2 - 0.0
21/01:30am 26.8 31.3 23.7 83 2.1 WSW 6 9 3 5 1012.7 1012.1 0.0
21/01:00am 27.0 31.5 23.7 82 2.3 WSW 6 9 3 5 1013.0 - 0.0
21/12:30am 27.1 31.5 23.8 82 2.3 WSW 7 11 4 6 1013.2 - 0.0
21/12:00am 27.2 31.6 23.4 80 2.6 W 6 9 3 5 1013.6 - 0.0
 
Date/Time
CST
Temp
°C
App
Temp
°C
Dew
Point
Rel
Hum
%
Delta-T
°C
Wind Press
QNH
hPa
Press
MSL
hPa
Rain
since 9 am
mm
Dir
 
Spd
km/h
Gust
km/h
Spd
kts
Gust
kts
20/11:30pm 27.5 31.6 23.3 78 2.9 W 7 11 4 6 1013.8 - 0.0
20/11:00pm 27.6 31.2 23.0 76 3.1 W 9 13 5 7 1013.9 - 0.0
20/10:30pm 27.8 31.5 22.5 73 3.6 W 7 11 4 6 1013.8 1013.2 0.0
20/10:00pm 28.1 31.3 22.3 70 3.9 W 9 13 5 7 1013.6 - 0.0
20/09:30pm 28.2 31.3 22.2 70 4.1 W 9 13 5 7 1013.6 - 0.0
20/09:00pm 28.2 31.4 22.4 71 3.9 WNW 9 13 5 7 1013.4 - 0.0
20/08:30pm 28.2 30.7 22.4 71 3.9 WNW 13 17 7 9 1013.1 - 0.0
20/08:00pm 28.2 31.1 22.4 71 3.9 NW 11 15 6 8 1012.9 - 0.0
20/07:30pm 28.3 31.1 22.3 70 4.1 NW 11 19 6 10 1012.7 1012.1 0.0
20/07:00pm 28.6 30.8 21.9 67 4.5 NW 13 19 7 10 1012.2 - 0.0
20/06:30pm 29.1 30.9 21.8 64 4.9 NNW 15 20 8 11 1011.8 - 0.0
20/06:00pm 30.2 31.2 20.2 55 6.6 NW 15 24 8 13 1011.4 - 0.0
20/05:30pm 30.5 30.8 19.5 51 7.2 NNW 17 26 9 14 1011.1 - 0.0
20/05:00pm 31.8 32.1 18.0 43 8.9 NNW 13 24 7 13 1010.9 - 0.0
20/04:30pm 32.3 31.9 18.8 44 8.8 NNW 19 30 10 16 1011.0 1010.4 0.0
20/04:00pm 32.1 32.4 19.7 48 8.2 NNW 17 26 9 14 1011.0 - 0.0
20/03:30pm 32.0 32.3 20.3 50 7.8 NNW 19 28 10 15 1011.1 - 0.0
20/03:00pm 32.0 32.3 20.3 50 7.8 NNW 19 28 10 15 1011.3 - 0.0
20/02:30pm 32.2 32.8 21.1 52 7.5 NW 19 28 10 15 1011.6 - 0.0
20/02:00pm 32.4 33.5 21.3 52 7.5 NW 17 26 9 14 1012.4 - 0.0
20/01:30pm 32.1 33.5 21.0 52 7.5 WNW 15 24 8 13 1012.9 1012.3 0.0

Other Formats:

Comma delimited format used in spreadsheet applications
http://www.bom.gov.au/fwo/IDD60801/IDD60801.95101.axf

JavaScript Object Notation format (JSON) in row-major order
http://www.bom.gov.au/fwo/IDD60801/IDD60801.95101.json